createdAt,value
2023-04-19T00:00:10.344Z,100.00
2023-04-19T00:02:37.251Z,100.00
2023-04-19T00:05:05.136Z,100.00
2023-04-19T00:07:33.083Z,100.00
2023-04-19T00:09:59.737Z,100.00
2023-04-19T00:12:27.833Z,100.00
2023-04-19T00:14:55.709Z,100.00
2023-04-19T00:17:23.005Z,100.00
2023-04-19T00:19:50.997Z,100.00
2023-04-19T00:22:17.618Z,100.00
2023-04-19T00:24:44.269Z,100.00
2023-04-19T00:27:10.901Z,100.00
2023-04-19T00:29:37.492Z,100.00
2023-04-19T00:32:05.979Z,100.00
2023-04-19T00:34:32.757Z,100.00
2023-04-19T00:36:59.475Z,100.00
2023-04-19T00:39:26.193Z,100.00
2023-04-19T00:41:54.216Z,100.00
2023-04-19T00:44:20.872Z,100.00
2023-04-19T00:46:48.385Z,100.00
2023-04-19T00:49:17.263Z,100.00
2023-04-19T00:51:44.008Z,100.00
2023-04-19T00:54:11.056Z,100.00
2023-04-19T00:56:38.251Z,100.00
2023-04-19T00:59:05.984Z,100.00
2023-04-19T01:01:34.039Z,100.00
2023-04-19T01:04:03.459Z,100.00
2023-04-19T01:06:30.326Z,100.00
2023-04-19T01:08:57.176Z,100.00
2023-04-19T01:11:24.709Z,100.00
2023-04-19T01:13:51.645Z,100.00
2023-04-19T01:16:20.057Z,100.00
2023-04-19T01:18:46.823Z,100.00
2023-04-19T01:21:13.423Z,100.00
2023-04-19T01:23:40.489Z,100.00
2023-04-19T01:26:07.148Z,100.00
2023-04-19T01:28:35.183Z,100.00
2023-04-19T01:31:03.384Z,100.00
2023-04-19T01:33:30.065Z,100.00
2023-04-19T01:35:56.671Z,100.00
2023-04-19T01:38:23.386Z,100.00
2023-04-19T01:40:50.014Z,100.00
2023-04-19T01:43:18.725Z,100.00
2023-04-19T01:45:45.878Z,100.00
2023-04-19T01:48:13.860Z,100.00
2023-04-19T01:50:42.757Z,100.00
2023-04-19T01:53:09.407Z,100.00
2023-04-19T01:55:36.024Z,100.00
2023-04-19T01:58:02.918Z,100.00
2023-04-19T02:00:29.587Z,100.00
2023-04-19T02:02:56.471Z,100.00
2023-04-19T02:05:24.679Z,100.00
2023-04-19T02:07:51.315Z,100.00
2023-04-19T02:10:17.982Z,100.00
2023-04-19T02:12:44.643Z,100.00
2023-04-19T02:15:11.385Z,100.00
2023-04-19T02:17:40.213Z,100.00
2023-04-19T02:20:08.605Z,100.00
2023-04-19T02:22:35.326Z,100.00
2023-04-19T02:25:02.317Z,100.00
2023-04-19T02:27:29.379Z,100.00
2023-04-19T02:29:56.500Z,100.00
2023-04-19T02:32:24.259Z,100.00
2023-04-19T02:34:50.934Z,100.00
2023-04-19T02:37:18.431Z,100.00
2023-04-19T02:39:45.995Z,100.00
2023-04-19T02:42:12.868Z,100.00
2023-04-19T02:44:40.896Z,100.00
2023-04-19T02:47:08.192Z,100.00
2023-04-19T02:49:38.291Z,100.00
2023-04-19T02:52:05.443Z,100.00
2023-04-19T02:54:33.438Z,100.00
2023-04-19T02:57:00.180Z,100.00
2023-04-19T02:59:27.042Z,100.00
2023-04-19T03:01:53.736Z,100.00
2023-04-19T03:04:20.424Z,100.00
2023-04-19T03:06:47.163Z,100.00
2023-04-19T03:09:13.767Z,100.00
2023-04-19T03:11:40.523Z,100.00
2023-04-19T03:14:07.148Z,100.00
2023-04-19T03:16:35.362Z,100.00
2023-04-19T03:19:03.322Z,100.00
2023-04-19T03:21:29.948Z,100.00
2023-04-19T03:23:56.588Z,100.00
2023-04-19T03:26:23.300Z,100.00
2023-04-19T03:28:49.941Z,100.00
2023-04-19T03:31:16.650Z,100.00
2023-04-19T03:33:44.579Z,100.00
2023-04-19T03:36:11.172Z,100.00
2023-04-19T03:38:38.062Z,100.00
2023-04-19T03:41:04.784Z,100.00
2023-04-19T03:43:31.417Z,100.00
2023-04-19T03:45:58.041Z,100.00
2023-04-19T03:48:24.670Z,100.00
2023-04-19T03:50:52.513Z,100.00
2023-04-19T03:53:19.399Z,100.00
2023-04-19T03:55:46.063Z,100.00
2023-04-19T03:58:12.656Z,100.00
2023-04-19T04:00:39.263Z,100.00
2023-04-19T04:03:06.200Z,100.00
2023-04-19T04:05:34.796Z,100.00
2023-04-19T04:08:01.648Z,100.00
2023-04-19T04:10:28.284Z,100.00
2023-04-19T04:12:55.011Z,100.00
2023-04-19T04:15:21.700Z,100.00
2023-04-19T04:17:49.582Z,100.00
2023-04-19T04:20:16.679Z,100.00
2023-04-19T04:22:43.912Z,100.00
2023-04-19T04:25:10.567Z,100.00
2023-04-19T04:27:37.491Z,100.00
2023-04-19T04:30:06.073Z,100.00
2023-04-19T04:32:36.863Z,100.00
2023-04-19T04:35:05.593Z,100.00
2023-04-19T04:37:34.067Z,100.00
2023-04-19T04:40:01.674Z,100.00
2023-04-19T04:42:31.485Z,100.00
2023-04-19T04:44:58.529Z,100.00
2023-04-19T04:47:26.100Z,100.00
2023-04-19T04:49:55.009Z,100.00
2023-04-19T04:52:21.700Z,100.00
2023-04-19T04:54:48.329Z,100.00
2023-04-19T04:57:15.108Z,100.00
2023-04-19T04:59:41.740Z,100.00
2023-04-19T05:02:08.403Z,100.00
2023-04-19T05:04:36.617Z,100.00
2023-04-19T05:07:04.347Z,100.00
2023-04-19T05:09:31.100Z,100.00
2023-04-19T05:11:57.952Z,100.00
2023-04-19T05:14:24.595Z,100.00
2023-04-19T05:16:51.307Z,100.00
2023-04-19T05:19:19.326Z,100.00
2023-04-19T05:21:46.350Z,100.00
2023-04-19T05:24:14.659Z,100.00
2023-04-19T05:26:41.364Z,100.00
2023-04-19T05:29:09.348Z,100.00
2023-04-19T05:31:36.151Z,100.00
2023-04-19T05:34:04.217Z,100.00
2023-04-19T05:36:30.825Z,100.00
2023-04-19T05:38:57.413Z,100.00
2023-04-19T05:41:24.104Z,100.00
2023-04-19T05:43:50.997Z,100.00
2023-04-19T05:46:17.697Z,100.00
2023-04-19T05:48:44.337Z,100.00
2023-04-19T05:51:12.596Z,100.00
2023-04-19T05:53:39.238Z,100.00
2023-04-19T05:56:07.191Z,100.00
2023-04-19T05:58:35.203Z,100.00
2023-04-19T06:01:02.896Z,100.00
2023-04-19T06:03:31.917Z,100.00
2023-04-19T06:05:59.704Z,100.00
2023-04-19T06:08:26.396Z,100.00
2023-04-19T06:10:57.006Z,100.00
2023-04-19T06:13:28.723Z,100.00
2023-04-19T06:15:55.427Z,100.00
2023-04-19T06:18:22.079Z,100.00
2023-04-19T06:20:48.716Z,100.00
2023-04-19T06:23:15.668Z,100.00
2023-04-19T06:25:43.732Z,100.00
2023-04-19T06:28:10.954Z,100.00
2023-04-19T06:30:37.594Z,100.00
2023-04-19T06:33:05.311Z,100.00
2023-04-19T06:35:33.572Z,100.00
2023-04-19T06:38:00.170Z,100.00
2023-04-19T06:40:29.051Z,100.00
2023-04-19T06:42:56.202Z,100.00
2023-04-19T06:45:22.865Z,100.00
2023-04-19T06:47:49.564Z,100.00
2023-04-19T06:50:18.067Z,100.00
2023-04-19T06:52:45.411Z,100.00
2023-04-19T06:55:12.599Z,100.00
2023-04-19T06:57:40.528Z,100.00
2023-04-19T07:00:07.975Z,100.00
2023-04-19T07:02:34.784Z,100.00
2023-04-19T07:05:01.505Z,100.00
2023-04-19T07:07:28.180Z,100.00
2023-04-19T07:09:54.771Z,100.00
2023-04-19T07:12:21.640Z,100.00
2023-04-19T07:14:49.622Z,100.00
2023-04-19T07:17:18.216Z,100.00
2023-04-19T07:19:48.795Z,100.00
2023-04-19T07:22:17.281Z,100.00
2023-04-19T07:24:44.661Z,100.00
2023-04-19T07:27:12.153Z,100.00
2023-04-19T07:29:39.005Z,96.52
2023-04-19T07:32:05.961Z,96.64
2023-04-19T07:34:32.584Z,97.70
2023-04-19T07:36:59.277Z,95.43
2023-04-19T07:39:25.928Z,98.83
2023-04-19T07:41:52.586Z,94.12
2023-04-19T07:44:19.570Z,95.53
2023-04-19T07:46:46.442Z,96.88
2023-04-19T07:49:14.677Z,97.09
2023-04-19T07:51:41.654Z,96.55
2023-04-19T07:54:08.325Z,92.44
2023-04-19T07:56:35.167Z,92.84
2023-04-19T07:59:08.522Z,91.13
2023-04-19T08:01:36.101Z,89.89
2023-04-19T08:04:03.264Z,91.35
2023-04-19T08:06:30.940Z,90.15
2023-04-19T08:08:57.621Z,90.23
2023-04-19T08:11:25.233Z,89.40
2023-04-19T08:14:04.745Z,88.77
2023-04-19T08:19:08.133Z,88.26
2023-04-19T08:21:41.240Z,88.69
2023-04-19T08:24:10.077Z,89.70
2023-04-19T08:26:36.766Z,88.60
2023-04-19T08:29:04.697Z,88.41
2023-04-19T08:31:31.622Z,88.02
2023-04-19T08:34:00.224Z,89.16
2023-04-19T08:36:39.096Z,89.12
2023-04-19T08:39:20.858Z,87.46
2023-04-19T08:42:06.647Z,87.47
2023-04-19T08:44:48.909Z,87.83
2023-04-19T08:47:31.230Z,86.24
2023-04-19T08:50:17.538Z,85.36
2023-04-19T08:53:00.636Z,85.93
2023-04-19T08:55:31.497Z,86.00
2023-04-19T08:57:58.804Z,86.53
2023-04-19T09:00:25.771Z,87.64
2023-04-19T09:02:55.946Z,87.02
2023-04-19T09:05:22.875Z,84.63
2023-04-19T09:07:49.864Z,84.30
2023-04-19T09:10:21.221Z,81.95
2023-04-19T09:13:05.164Z,81.90
2023-04-19T09:15:40.237Z,80.85
2023-04-19T09:18:10.237Z,79.14
2023-04-19T09:20:44.567Z,80.30
2023-04-19T09:23:13.571Z,81.22
2023-04-19T09:26:05.817Z,80.64
2023-04-19T09:28:28.980Z,79.08
2023-04-19T09:31:06.721Z,80.06
2023-04-19T09:33:41.758Z,79.59
2023-04-19T09:36:08.847Z,79.40
2023-04-19T09:38:50.444Z,78.96
2023-04-19T09:41:19.882Z,79.04
2023-04-19T09:44:05.506Z,77.65
2023-04-19T09:46:37.674Z,77.80
2023-04-19T09:49:37.672Z,77.43
2023-04-19T09:52:15.715Z,77.57
2023-04-19T09:54:42.563Z,78.83
2023-04-19T09:57:09.345Z,80.66
2023-04-19T09:59:36.080Z,80.21
2023-04-19T10:02:05.099Z,82.43
2023-04-19T10:04:44.164Z,82.44
2023-04-19T10:07:30.082Z,81.86
2023-04-19T10:10:11.793Z,80.54
2023-04-19T10:15:23.506Z,79.56
2023-04-19T10:17:52.200Z,78.24
2023-04-19T10:20:36.921Z,79.15
2023-04-19T10:23:08.036Z,77.30
2023-04-19T10:25:37.523Z,76.21
2023-04-19T10:28:04.416Z,76.21
2023-04-19T10:30:31.170Z,75.13
2023-04-19T10:32:59.436Z,75.10
2023-04-19T10:35:38.808Z,74.89
2023-04-19T10:38:13.198Z,74.58
2023-04-19T10:40:57.786Z,74.23
2023-04-19T10:43:25.466Z,75.51
2023-04-19T10:45:53.173Z,73.59
2023-04-19T10:48:54.760Z,75.75
2023-04-19T10:51:44.288Z,75.91
2023-04-19T10:54:31.578Z,76.77
2023-04-19T10:57:11.566Z,76.88
2023-04-19T10:59:40.551Z,76.09
2023-04-19T11:02:22.661Z,77.05
2023-04-19T11:04:49.496Z,79.12
2023-04-19T11:07:18.331Z,78.72
2023-04-19T11:09:46.264Z,79.13
2023-04-19T11:12:14.006Z,79.84
2023-04-19T11:14:42.767Z,80.09
2023-04-19T11:17:27.264Z,80.16
2023-04-19T11:19:54.058Z,79.44
2023-04-19T11:22:47.277Z,78.78
2023-04-19T11:25:23.370Z,77.15
2023-04-19T11:27:53.002Z,77.80
2023-04-19T11:30:23.680Z,78.33
2023-04-19T11:32:53.948Z,78.41
2023-04-19T11:35:22.896Z,79.30
2023-04-19T11:37:50.366Z,79.17
2023-04-19T11:40:18.823Z,77.25
2023-04-19T11:42:45.941Z,76.03
2023-04-19T11:47:53.079Z,75.41
2023-04-19T11:50:36.685Z,74.42
2023-04-19T11:53:15.730Z,73.45
2023-04-19T11:55:45.218Z,73.65
2023-04-19T11:58:25.871Z,72.38
2023-04-19T12:00:53.981Z,70.66
2023-04-19T12:03:26.455Z,71.66
2023-04-19T12:05:58.312Z,74.27
2023-04-19T12:08:32.347Z,74.92
2023-04-19T12:10:59.999Z,73.66
2023-04-19T12:13:26.982Z,73.87
2023-04-19T12:15:53.896Z,74.13
2023-04-19T12:18:20.791Z,72.71
2023-04-19T12:20:49.427Z,71.15
2023-04-19T12:23:17.129Z,69.62
2023-04-19T12:25:47.867Z,69.11
2023-04-19T12:28:16.065Z,69.18
2023-04-19T12:30:42.980Z,69.00
2023-04-19T12:33:09.879Z,69.58
2023-04-19T12:35:37.438Z,70.78
2023-04-19T12:38:05.454Z,71.87
2023-04-19T12:40:32.321Z,71.49
2023-04-19T12:42:58.980Z,70.15
2023-04-19T12:45:25.798Z,68.98
2023-04-19T12:47:52.788Z,68.83
2023-04-19T12:50:22.187Z,69.61
2023-04-19T12:52:48.871Z,69.56
2023-04-19T12:55:16.078Z,68.94
2023-04-19T12:57:44.126Z,65.90
2023-04-19T13:00:12.495Z,65.92
2023-04-19T13:02:39.611Z,66.36
2023-04-19T13:05:07.296Z,66.21
2023-04-19T13:07:33.979Z,67.90
2023-04-19T13:10:00.771Z,67.13
2023-04-19T13:12:28.341Z,64.87
2023-04-19T13:14:55.025Z,65.20
2023-04-19T13:17:22.213Z,64.01
2023-04-19T13:19:48.960Z,64.89
2023-04-19T13:22:15.900Z,66.12
2023-04-19T13:24:42.558Z,64.65
2023-04-19T13:27:09.515Z,63.92
2023-04-19T13:29:36.681Z,61.69
2023-04-19T13:32:03.663Z,60.99
2023-04-19T13:34:31.066Z,56.85
2023-04-19T13:36:58.419Z,58.36
2023-04-19T13:39:25.494Z,58.80
2023-04-19T13:41:52.128Z,58.22
2023-04-19T13:44:19.056Z,55.32
2023-04-19T13:46:46.187Z,56.06
2023-04-19T13:49:12.813Z,57.33
2023-04-19T13:51:49.449Z,55.17
2023-04-19T13:54:18.867Z,54.27
2023-04-19T13:56:46.086Z,54.87
2023-04-19T13:59:12.765Z,55.66
2023-04-19T14:01:39.746Z,55.10
2023-04-19T14:04:08.147Z,56.03
2023-04-19T14:06:35.080Z,56.59
2023-04-19T14:09:01.767Z,57.59
2023-04-19T14:11:28.606Z,58.17
2023-04-19T14:13:56.157Z,55.90
2023-04-19T14:16:25.372Z,54.62
2023-04-19T14:18:52.600Z,54.06
2023-04-19T14:21:19.513Z,54.02
2023-04-19T14:23:46.153Z,52.22
2023-04-19T14:26:13.096Z,54.06
2023-04-19T14:28:39.694Z,53.33
2023-04-19T14:31:07.841Z,53.07
2023-04-19T14:33:34.701Z,52.00
2023-04-19T14:36:02.459Z,52.93
2023-04-19T14:38:30.276Z,52.83
2023-04-19T14:40:57.000Z,53.18
2023-04-19T14:43:23.656Z,52.89
2023-04-19T14:45:51.630Z,50.09
2023-04-19T14:48:21.435Z,48.60
2023-04-19T14:50:49.642Z,48.80
2023-04-19T14:53:17.976Z,47.92
2023-04-19T14:55:44.559Z,49.81
2023-04-19T14:58:11.175Z,48.91
2023-04-19T15:00:37.887Z,49.63
2023-04-19T15:03:05.073Z,48.48
2023-04-19T15:05:35.674Z,47.88
2023-04-19T15:08:02.435Z,47.13
2023-04-19T15:10:30.652Z,48.01
2023-04-19T15:12:58.072Z,48.07
2023-04-19T15:15:24.756Z,47.39
2023-04-19T15:17:51.579Z,46.64
2023-04-19T15:20:18.363Z,45.17
2023-04-19T15:22:45.036Z,46.31
2023-04-19T15:25:11.984Z,45.86
2023-04-19T15:27:38.688Z,46.29
2023-04-19T15:30:06.285Z,45.82
2023-04-19T15:32:34.547Z,45.97
2023-04-19T15:35:01.233Z,46.78
2023-04-19T15:37:27.844Z,45.30
2023-04-19T15:39:55.902Z,45.41
2023-04-19T15:42:22.616Z,45.37
2023-04-19T15:44:49.284Z,45.17
2023-04-19T15:47:16.183Z,47.01
2023-04-19T15:49:42.894Z,47.26
2023-04-19T15:52:09.532Z,47.03
2023-04-19T15:54:37.739Z,47.45
2023-04-19T15:57:05.576Z,47.65
2023-04-19T15:59:32.159Z,48.54
2023-04-19T16:01:58.978Z,49.14
2023-04-19T16:04:25.943Z,48.58
2023-04-19T16:06:52.709Z,45.97
2023-04-19T16:09:19.530Z,46.34
2023-04-19T16:11:46.206Z,45.14
2023-04-19T16:14:14.221Z,44.41
2023-04-19T16:16:41.408Z,44.65
2023-04-19T16:19:08.064Z,46.12
2023-04-19T16:21:34.790Z,45.90
2023-04-19T16:24:01.389Z,45.52
2023-04-19T16:26:28.028Z,44.40
2023-04-19T16:28:55.910Z,45.70
2023-04-19T16:31:24.150Z,47.13
2023-04-19T16:33:52.347Z,47.88
2023-04-19T16:36:20.307Z,47.21
2023-04-19T16:38:46.914Z,48.27
2023-04-19T16:41:14.907Z,48.41
2023-04-19T16:43:41.504Z,49.57
2023-04-19T16:46:08.277Z,49.65
2023-04-19T16:48:35.056Z,51.26
2023-04-19T16:51:02.066Z,52.00
2023-04-19T16:53:29.201Z,52.48
2023-04-19T16:55:56.625Z,52.88
2023-04-19T16:58:23.505Z,52.96
2023-04-19T17:00:50.107Z,53.27
2023-04-19T17:03:16.963Z,54.05
2023-04-19T17:05:43.707Z,55.55
2023-04-19T17:08:11.133Z,57.57
2023-04-19T17:10:38.013Z,58.59
2023-04-19T17:13:04.696Z,60.22
2023-04-19T17:15:31.625Z,61.75
2023-04-19T17:17:58.401Z,62.86
2023-04-19T17:20:25.025Z,63.90
2023-04-19T17:22:51.669Z,65.10
2023-04-19T17:25:19.156Z,65.73
2023-04-19T17:27:47.175Z,66.15
2023-04-19T17:30:15.590Z,66.04
2023-04-19T17:32:42.242Z,66.53
2023-04-19T17:35:10.543Z,66.83
2023-04-19T17:37:37.332Z,67.27
2023-04-19T17:40:04.519Z,68.09
2023-04-19T17:42:31.778Z,68.73
2023-04-19T17:45:00.321Z,69.88
2023-04-19T17:47:27.667Z,71.27
2023-04-19T17:50:09.353Z,71.54
2023-04-19T17:52:36.030Z,72.74
2023-04-19T17:55:05.952Z,74.11
2023-04-19T17:57:34.017Z,76.14
2023-04-19T18:00:04.087Z,78.09
2023-04-19T18:02:30.923Z,79.75
2023-04-19T18:04:57.703Z,81.14
2023-04-19T18:07:24.357Z,82.36
2023-04-19T18:09:51.001Z,83.83
2023-04-19T18:12:17.659Z,85.44
2023-04-19T18:14:44.383Z,86.64
2023-04-19T18:17:11.072Z,88.64
2023-04-19T18:19:37.717Z,89.74
2023-04-19T18:22:04.397Z,90.60
2023-04-19T18:24:33.922Z,92.09
2023-04-19T18:27:01.844Z,93.48
2023-04-19T18:29:29.835Z,94.50
2023-04-19T18:31:56.577Z,95.27
2023-04-19T18:34:24.462Z,96.88
2023-04-19T18:36:58.084Z,98.29
2023-04-19T18:39:26.097Z,98.42
2023-04-19T18:41:52.978Z,99.00
2023-04-19T18:44:44.280Z,100.00
2023-04-19T18:47:06.478Z,100.00
2023-04-19T18:49:33.172Z,100.00
2023-04-19T18:52:00.567Z,100.00
2023-04-19T18:54:28.369Z,100.00
2023-04-19T18:59:24.922Z,100.00
2023-04-19T19:01:52.540Z,100.00
2023-04-19T19:04:33.928Z,100.00
2023-04-19T19:07:27.304Z,100.00
2023-04-19T19:09:57.145Z,100.00
2023-04-19T19:12:24.033Z,100.00
2023-04-19T19:14:50.860Z,100.00
2023-04-19T19:17:17.560Z,100.00
2023-04-19T19:19:44.281Z,100.00
2023-04-19T19:22:24.979Z,100.00
2023-04-19T19:24:54.823Z,100.00
2023-04-19T19:27:22.836Z,100.00
2023-04-19T19:29:49.439Z,100.00
2023-04-19T19:32:16.330Z,100.00
2023-04-19T19:34:54.858Z,100.00
2023-04-19T19:37:26.986Z,100.00
2023-04-19T19:39:56.432Z,100.00
2023-04-19T19:42:24.017Z,100.00
2023-04-19T19:44:55.405Z,100.00
2023-04-19T19:47:23.862Z,100.00
2023-04-19T19:50:31.552Z,100.00
2023-04-19T19:52:38.138Z,100.00
2023-04-19T19:55:05.209Z,100.00
2023-04-19T19:58:16.420Z,100.00
2023-04-19T20:00:40.021Z,100.00
2023-04-19T20:03:06.701Z,100.00
2023-04-19T20:05:33.941Z,100.00
2023-04-19T20:08:09.776Z,100.00
2023-04-19T20:10:37.761Z,100.00
2023-04-19T20:13:08.075Z,100.00
2023-04-19T20:15:36.542Z,100.00
2023-04-19T20:18:05.431Z,100.00
2023-04-19T20:20:32.252Z,100.00
2023-04-19T20:22:58.916Z,100.00
2023-04-19T20:25:25.729Z,100.00
2023-04-19T20:27:52.476Z,100.00
2023-04-19T20:30:19.175Z,100.00
2023-04-19T20:32:46.091Z,100.00
2023-04-19T20:35:12.852Z,100.00
2023-04-19T20:37:40.023Z,100.00
2023-04-19T20:40:10.981Z,100.00
2023-04-19T20:42:37.800Z,100.00
2023-04-19T20:45:06.960Z,100.00
2023-04-19T20:47:33.858Z,100.00
2023-04-19T20:50:00.559Z,100.00
2023-04-19T20:52:27.231Z,100.00
2023-04-19T20:54:55.601Z,100.00
2023-04-19T20:57:22.395Z,100.00
2023-04-19T20:59:49.162Z,100.00
2023-04-19T21:02:16.158Z,100.00
2023-04-19T21:04:43.203Z,100.00
2023-04-19T21:07:11.289Z,100.00
2023-04-19T21:09:39.388Z,100.00
2023-04-19T21:12:06.049Z,100.00
2023-04-19T21:14:34.969Z,100.00
2023-04-19T21:17:02.177Z,100.00
2023-04-19T21:19:29.283Z,100.00
2023-04-19T21:21:56.286Z,100.00
2023-04-19T21:24:22.964Z,100.00
2023-04-19T21:26:49.594Z,100.00
2023-04-19T21:29:17.752Z,100.00
2023-04-19T21:31:44.550Z,100.00
2023-04-19T21:34:12.545Z,100.00
2023-04-19T21:36:39.163Z,100.00
2023-04-19T21:39:07.356Z,100.00
2023-04-19T21:41:35.304Z,100.00
2023-04-19T21:44:01.893Z,100.00
2023-04-19T21:46:29.822Z,100.00
2023-04-19T21:48:56.553Z,100.00
2023-04-19T21:51:23.711Z,100.00
2023-04-19T21:53:50.493Z,100.00
2023-04-19T21:56:17.235Z,100.00
2023-04-19T21:58:43.848Z,100.00
2023-04-19T22:01:10.887Z,100.00
2023-04-19T22:03:38.076Z,100.00
2023-04-19T22:06:05.021Z,100.00
2023-04-19T22:08:32.965Z,100.00
2023-04-19T22:11:01.530Z,100.00
2023-04-19T22:13:28.452Z,100.00
2023-04-19T22:15:58.440Z,100.00
2023-04-19T22:18:25.067Z,100.00
2023-04-19T22:20:53.284Z,100.00
2023-04-19T22:23:19.904Z,100.00
2023-04-19T22:25:46.582Z,100.00
2023-04-19T22:28:13.215Z,100.00
2023-04-19T22:30:39.832Z,100.00
2023-04-19T22:33:07.963Z,100.00
2023-04-19T22:35:34.589Z,100.00
2023-04-19T22:38:01.279Z,100.00
2023-04-19T22:40:28.036Z,100.00
2023-04-19T22:42:54.655Z,100.00
2023-04-19T22:45:21.316Z,100.00
2023-04-19T22:47:48.089Z,100.00
2023-04-19T22:50:15.124Z,100.00
2023-04-19T22:52:43.940Z,100.00
2023-04-19T22:55:11.129Z,100.00
2023-04-19T22:57:38.980Z,100.00
2023-04-19T23:00:07.059Z,100.00
2023-04-19T23:02:33.849Z,100.00
2023-04-19T23:05:00.835Z,100.00
2023-04-19T23:07:28.905Z,100.00
2023-04-19T23:09:55.858Z,100.00
2023-04-19T23:12:22.956Z,100.00
2023-04-19T23:14:52.046Z,100.00
2023-04-19T23:17:19.951Z,100.00
2023-04-19T23:19:48.003Z,100.00
2023-04-19T23:22:14.796Z,100.00
2023-04-19T23:24:41.499Z,100.00
2023-04-19T23:27:08.375Z,100.00
2023-04-19T23:29:35.030Z,100.00
2023-04-19T23:32:03.429Z,100.00
2023-04-19T23:34:30.065Z,100.00
2023-04-19T23:36:58.212Z,100.00
2023-04-19T23:39:25.001Z,100.00
2023-04-19T23:41:52.905Z,100.00
2023-04-19T23:44:19.497Z,100.00
2023-04-19T23:46:47.378Z,100.00
2023-04-19T23:49:14.066Z,100.00
2023-04-19T23:51:41.207Z,100.00
2023-04-19T23:54:08.308Z,100.00
2023-04-19T23:56:34.917Z,100.00
2023-04-19T23:59:01.563Z,100.00
